Rock Springs, Wisconsin
Current Conditions -  °F | °C
As of 2:15 PM on Thursday 23 Oct 2014 (Local Time) from KC35 Reporting Station
Light Rain Light Rain  
Wind Chill: 46°   Ceiling: 700
Heat Index: 46°   Visibility: 4mi
Dew Point: 45°   Wind: 3mph
Humidity: 97%   Direction: 190°S
Pressure: 30.04"   Gusts: NA
Location:  43.49°N, 89.92°W
Report Text: KC35 231915Z AUTO 19003KT 4SM -RA OVC007 08/07 A3004 RMK AO2 P0002 T00750070
Loading
Personal Weather Stations






























Interactive Weather Map
Tropical Storm Tracking
New forecast layout! Learn more

10-Day Weather Forecast

Advertisements
Track Severe Weather on mobile